createdAt,value
2022-10-07T00:01:27.626Z,12.88
2022-10-07T00:03:29.990Z,11.70
2022-10-07T00:05:31.794Z,11.52
2022-10-07T00:07:33.639Z,10.88
2022-10-07T00:09:35.414Z,11.32
2022-10-07T00:11:37.418Z,11.48
2022-10-07T00:13:41.432Z,11.75
2022-10-07T00:15:43.251Z,11.60
2022-10-07T00:17:45.504Z,14.35
2022-10-07T00:19:47.762Z,13.52
2022-10-07T00:21:49.585Z,15.07
2022-10-07T00:23:51.838Z,15.48
2022-10-07T00:25:53.818Z,14.57
2022-10-07T00:27:55.607Z,14.57
2022-10-07T00:29:57.475Z,15.35
2022-10-07T00:31:59.489Z,15.27
2022-10-07T00:34:01.717Z,14.05
2022-10-07T00:36:27.645Z,12.85
2022-10-07T00:38:29.783Z,14.55
2022-10-07T00:40:31.528Z,14.65
2022-10-07T00:42:33.325Z,15.85
2022-10-07T00:44:35.088Z,14.10
2022-10-07T00:46:39.596Z,13.20
2022-10-07T00:48:42.810Z,14.07
2022-10-07T00:50:44.688Z,14.65
2022-10-07T00:52:51.664Z,13.52
2022-10-07T00:54:57.950Z,14.05
2022-10-07T00:56:59.958Z,14.32
2022-10-07T00:59:02.172Z,13.73
2022-10-07T01:01:04.113Z,14.00
2022-10-07T01:03:06.455Z,13.82
2022-10-07T01:05:09.881Z,13.02
2022-10-07T01:07:11.769Z,14.82
2022-10-07T01:09:14.517Z,14.20
2022-10-07T01:11:52.244Z,13.90
2022-10-07T01:13:56.804Z,12.48
2022-10-07T01:16:25.380Z,12.95
2022-10-07T01:18:38.863Z,13.27
2022-10-07T01:20:45.605Z,13.45
2022-10-07T01:23:14.728Z,13.45
2022-10-07T01:26:03.319Z,13.77
2022-10-07T01:28:09.677Z,14.65
2022-10-07T01:30:12.030Z,13.45
2022-10-07T01:32:21.999Z,15.40
2022-10-07T01:34:26.284Z,15.63
2022-10-07T01:36:28.529Z,15.07
2022-10-07T01:38:32.537Z,14.30
2022-10-07T01:40:51.293Z,14.85
2022-10-07T01:42:54.822Z,15.82
2022-10-07T01:44:58.812Z,14.85
2022-10-07T01:47:00.606Z,15.65
2022-10-07T01:49:02.612Z,15.77
2022-10-07T01:51:05.043Z,15.68
2022-10-07T01:53:15.625Z,14.90
2022-10-07T01:55:54.549Z,18.98
2022-10-07T01:58:08.074Z,18.02
2022-10-07T02:00:13.338Z,17.17
2022-10-07T02:02:36.294Z,17.30
2022-10-07T02:04:43.970Z,17.90
2022-10-07T02:07:11.636Z,17.05
2022-10-07T02:09:29.246Z,16.15
2022-10-07T02:11:36.136Z,16.27
2022-10-07T02:13:56.680Z,16.30
2022-10-07T02:16:27.773Z,16.48
2022-10-07T02:18:32.531Z,16.10
2022-10-07T02:20:38.162Z,17.33
2022-10-07T02:22:43.600Z,16.38
2022-10-07T02:24:48.006Z,16.05
2022-10-07T02:26:51.978Z,16.70
2022-10-07T02:28:57.142Z,14.80
2022-10-07T02:31:02.918Z,16.02
2022-10-07T02:33:07.392Z,16.10
2022-10-07T02:35:24.129Z,15.65
2022-10-07T02:37:33.693Z,15.50
2022-10-07T02:39:35.406Z,15.32
2022-10-07T02:41:58.752Z,15.65
2022-10-07T02:44:06.059Z,15.23
2022-10-07T02:46:15.444Z,15.95
2022-10-07T02:48:30.711Z,15.32
2022-10-07T02:50:38.932Z,15.77
2022-10-07T02:52:42.901Z,15.77
2022-10-07T02:54:51.887Z,15.35
2022-10-07T02:56:54.673Z,15.68
2022-10-07T02:58:58.680Z,16.73
2022-10-07T03:01:03.028Z,15.18
2022-10-07T03:03:05.741Z,15.32
2022-10-07T03:05:09.321Z,15.90
2022-10-07T03:09:13.001Z,15.43
2022-10-07T03:11:14.827Z,16.52
2022-10-07T03:13:16.617Z,14.43
2022-10-07T03:15:18.378Z,12.98
2022-10-07T03:17:20.452Z,13.32
2022-10-07T03:19:22.314Z,13.57
2022-10-07T03:21:24.029Z,13.88
2022-10-07T03:23:27.228Z,14.13
2022-10-07T03:25:29.156Z,14.18
2022-10-07T03:27:30.879Z,14.98
2022-10-07T03:29:33.815Z,14.88
2022-10-07T03:31:35.842Z,14.27
2022-10-07T03:33:38.353Z,13.65
2022-10-07T03:35:40.208Z,13.27
2022-10-07T03:37:42.735Z,13.43
2022-10-07T03:39:44.610Z,16.52
2022-10-07T03:41:46.456Z,15.07
2022-10-07T03:43:48.396Z,13.38
2022-10-07T03:45:50.843Z,15.20
2022-10-07T03:47:52.678Z,15.75
2022-10-07T03:49:55.209Z,15.10
2022-10-07T03:51:57.069Z,14.82
2022-10-07T03:53:59.537Z,14.15
2022-10-07T03:56:01.302Z,14.25
2022-10-07T03:58:02.995Z,13.60
2022-10-07T04:00:05.111Z,12.20
2022-10-07T04:02:06.909Z,12.45
2022-10-07T04:04:08.632Z,12.82
2022-10-07T04:06:10.592Z,12.35
2022-10-07T04:08:12.933Z,12.68
2022-10-07T04:10:16.463Z,13.10
2022-10-07T04:12:18.496Z,13.95
2022-10-07T04:14:20.309Z,13.20
2022-10-07T04:16:22.088Z,14.07
2022-10-07T04:18:24.145Z,14.57
2022-10-07T04:20:26.316Z,14.23
2022-10-07T04:22:28.106Z,13.55
2022-10-07T04:24:29.850Z,13.85
2022-10-07T04:26:31.729Z,13.55
2022-10-07T04:28:33.545Z,14.00
2022-10-07T04:30:39.817Z,13.13
2022-10-07T04:32:41.621Z,14.18
2022-10-07T04:34:43.336Z,13.60
2022-10-07T04:36:45.212Z,14.25
2022-10-07T04:38:50.596Z,13.45
2022-10-07T04:40:52.281Z,12.88
2022-10-07T04:42:54.088Z,14.40
2022-10-07T04:44:55.968Z,13.25
2022-10-07T04:46:57.738Z,12.82
2022-10-07T04:48:59.625Z,13.63
2022-10-07T04:51:06.789Z,13.52
2022-10-07T04:53:10.058Z,14.25
2022-10-07T04:55:12.066Z,13.90
2022-10-07T04:57:13.863Z,14.38
2022-10-07T04:59:15.546Z,15.50
2022-10-07T05:01:17.525Z,16.25
2022-10-07T05:03:21.722Z,16.95
2022-10-07T05:05:23.409Z,15.85
2022-10-07T05:07:25.794Z,16.42
2022-10-07T05:09:27.885Z,15.77
2022-10-07T05:11:29.610Z,14.27
2022-10-07T05:13:31.367Z,14.45
2022-10-07T05:15:33.655Z,16.95
2022-10-07T05:17:35.415Z,16.95
2022-10-07T05:19:37.314Z,15.95
2022-10-07T05:21:39.251Z,15.20
2022-10-07T05:23:40.968Z,15.45
2022-10-07T05:25:43.085Z,15.70
2022-10-07T05:27:45.054Z,14.32
2022-10-07T05:29:46.919Z,15.70
2022-10-07T05:31:48.848Z,14.98
2022-10-07T05:33:50.703Z,15.05
2022-10-07T05:35:52.428Z,13.30
2022-10-07T05:37:54.618Z,14.10
2022-10-07T05:39:56.636Z,14.02
2022-10-07T05:41:58.483Z,13.57
2022-10-07T05:44:00.246Z,17.17
2022-10-07T05:46:21.802Z,18.75
2022-10-07T05:48:23.624Z,19.35
2022-10-07T05:50:25.908Z,24.25
2022-10-07T05:52:28.014Z,20.55
2022-10-07T05:54:29.722Z,20.20
2022-10-07T05:56:31.534Z,19.17
2022-10-07T05:58:33.732Z,15.40
2022-10-07T06:00:35.409Z,14.13
2022-10-07T06:02:37.432Z,14.50
2022-10-07T06:04:39.520Z,13.00
2022-10-07T06:06:41.235Z,12.88
2022-10-07T06:08:43.433Z,12.65
2022-10-07T06:10:49.122Z,12.10
2022-10-07T06:12:50.852Z,13.30
2022-10-07T06:14:52.754Z,13.85
2022-10-07T06:16:54.618Z,14.35
2022-10-07T06:18:56.894Z,15.25
2022-10-07T06:21:00.847Z,13.52
2022-10-07T06:23:02.827Z,14.35
2022-10-07T06:25:04.929Z,13.40
2022-10-07T06:27:06.676Z,13.02
2022-10-07T06:29:09.152Z,13.15
2022-10-07T06:31:13.686Z,13.30
2022-10-07T06:33:17.271Z,12.65
2022-10-07T06:35:19.317Z,11.80
2022-10-07T06:37:21.025Z,12.48
2022-10-07T06:39:22.977Z,13.02
2022-10-07T06:41:24.738Z,11.80
2022-10-07T06:43:27.746Z,12.02
2022-10-07T06:45:33.726Z,12.10
2022-10-07T06:47:35.662Z,13.13
2022-10-07T06:49:37.344Z,12.27
2022-10-07T06:51:39.080Z,13.88
2022-10-07T06:53:41.214Z,13.35
2022-10-07T06:55:42.888Z,13.90
2022-10-07T06:57:46.232Z,13.90
2022-10-07T07:01:49.865Z,14.52
2022-10-07T07:03:51.751Z,13.70
2022-10-07T07:05:54.787Z,12.48
2022-10-07T07:07:57.098Z,13.20
2022-10-07T07:09:58.803Z,13.20
2022-10-07T07:12:00.636Z,13.07
2022-10-07T07:14:05.615Z,13.70
2022-10-07T07:16:08.397Z,13.48
2022-10-07T07:18:11.261Z,12.87
2022-10-07T07:20:12.991Z,12.75
2022-10-07T07:22:14.887Z,12.93
2022-10-07T07:24:16.875Z,11.85
2022-10-07T07:26:18.929Z,11.48
2022-10-07T07:28:21.035Z,12.20
2022-10-07T07:30:22.898Z,13.45
2022-10-07T07:32:24.856Z,15.63
2022-10-07T07:34:26.770Z,15.23
2022-10-07T07:36:30.589Z,21.75
2022-10-07T07:38:32.277Z,16.73
2022-10-07T07:40:37.173Z,14.98
2022-10-07T07:42:39.074Z,14.57
2022-10-07T07:44:41.066Z,12.85
2022-10-07T07:46:45.583Z,12.50
2022-10-07T07:48:48.179Z,12.50
2022-10-07T07:50:49.872Z,12.32
2022-10-07T07:52:56.535Z,12.10
2022-10-07T07:54:59.175Z,11.90
2022-10-07T07:57:00.860Z,11.98
2022-10-07T07:59:03.552Z,11.18
2022-10-07T08:01:08.439Z,11.30
2022-10-07T08:03:10.137Z,9.55
2022-10-07T08:05:11.918Z,10.27
2022-10-07T08:07:13.860Z,10.73
2022-10-07T08:09:15.895Z,9.70
2022-10-07T08:11:20.047Z,9.82
2022-10-07T08:13:21.887Z,9.13
2022-10-07T08:15:23.592Z,7.60
2022-10-07T08:17:25.302Z,5.57
2022-10-07T08:19:27.210Z,5.68
2022-10-07T08:21:29.574Z,5.57
2022-10-07T08:23:31.368Z,5.32
2022-10-07T08:25:33.106Z,5.35
2022-10-07T08:27:34.820Z,6.05
2022-10-07T08:29:36.558Z,4.90
2022-10-07T08:31:38.314Z,4.38
2022-10-07T08:33:42.373Z,4.72
2022-10-07T08:35:48.809Z,4.10
2022-10-07T08:37:50.567Z,4.15
2022-10-07T08:39:52.269Z,4.60
2022-10-07T08:42:14.127Z,4.10
2022-10-07T08:44:18.043Z,4.93
2022-10-07T08:46:25.147Z,7.20
2022-10-07T08:48:34.207Z,3.63
2022-10-07T08:51:00.504Z,3.80
2022-10-07T08:53:06.286Z,3.65
2022-10-07T08:55:16.974Z,3.42
2022-10-07T08:57:32.266Z,3.88
2022-10-07T08:59:35.934Z,3.53
2022-10-07T09:03:55.475Z,3.45
2022-10-07T09:05:58.486Z,4.30
2022-10-07T09:08:06.671Z,3.70
2022-10-07T09:10:26.806Z,3.38
2022-10-07T09:12:40.521Z,3.45
2022-10-07T09:14:46.978Z,3.13
2022-10-07T09:16:50.776Z,3.95
2022-10-07T09:18:59.227Z,3.33
2022-10-07T09:21:05.208Z,2.90
2022-10-07T09:23:13.367Z,3.15
2022-10-07T09:25:26.950Z,3.00
2022-10-07T09:27:28.803Z,2.65
2022-10-07T09:29:30.921Z,3.60
2022-10-07T09:31:32.747Z,3.08
2022-10-07T09:33:42.185Z,3.00
2022-10-07T09:35:57.221Z,2.80
2022-10-07T09:38:05.237Z,2.90
2022-10-07T09:40:32.573Z,2.28
2022-10-07T09:42:38.959Z,2.47
2022-10-07T09:44:40.754Z,2.50
2022-10-07T09:46:51.332Z,2.40
2022-10-07T09:49:01.363Z,2.55
2022-10-07T09:51:17.763Z,2.50
2022-10-07T09:53:27.861Z,2.45
2022-10-07T09:55:42.946Z,2.60
2022-10-07T09:57:59.986Z,2.50
2022-10-07T10:00:13.968Z,2.28
2022-10-07T10:04:24.936Z,1.83
2022-10-07T10:06:26.763Z,2.80
2022-10-07T10:08:55.420Z,1.30
2022-10-07T10:10:59.903Z,1.70
2022-10-07T10:13:04.174Z,1.48
2022-10-07T10:15:22.843Z,1.40
2022-10-07T10:17:29.296Z,1.35
2022-10-07T10:19:36.368Z,1.40
2022-10-07T10:21:42.544Z,1.55
2022-10-07T10:23:48.073Z,1.30
2022-10-07T10:26:00.092Z,1.50
2022-10-07T10:28:11.506Z,1.38
2022-10-07T10:30:24.630Z,1.52
2022-10-07T10:32:48.163Z,1.70
2022-10-07T10:34:55.133Z,1.58
2022-10-07T10:37:26.113Z,1.63
2022-10-07T10:39:52.247Z,1.60
2022-10-07T10:41:58.215Z,1.50
2022-10-07T10:44:30.170Z,1.60
2022-10-07T10:47:10.780Z,1.60
2022-10-07T10:49:29.262Z,1.67
2022-10-07T10:51:50.249Z,1.73
2022-10-07T10:54:04.169Z,1.52
2022-10-07T10:58:49.675Z,1.48
2022-10-07T11:00:51.439Z,1.77
2022-10-07T11:03:31.307Z,2.08
2022-10-07T11:05:39.523Z,1.50
2022-10-07T11:07:51.260Z,1.65
2022-10-07T11:10:24.446Z,2.15
2022-10-07T11:12:44.902Z,1.65
2022-10-07T11:14:56.997Z,1.60
2022-10-07T11:17:05.191Z,1.65
2022-10-07T11:19:25.358Z,1.70
2022-10-07T11:21:36.519Z,1.75
2022-10-07T11:24:03.468Z,1.20
2022-10-07T11:26:17.156Z,1.83
2022-10-07T11:28:26.807Z,1.73
2022-10-07T11:30:35.556Z,1.48
2022-10-07T11:32:58.640Z,1.33
2022-10-07T11:35:21.940Z,1.20
2022-10-07T11:37:33.819Z,1.67
2022-10-07T11:39:39.678Z,1.00
2022-10-07T11:42:04.572Z,1.63
2022-10-07T11:44:14.820Z,1.25
2022-10-07T11:46:25.306Z,1.33
2022-10-07T11:48:39.034Z,1.23
2022-10-07T11:50:47.878Z,1.38
2022-10-07T11:52:54.048Z,1.55
2022-10-07T11:55:08.790Z,1.40
2022-10-07T11:57:26.189Z,1.20
2022-10-07T11:59:45.134Z,1.70
2022-10-07T12:01:50.251Z,1.80
2022-10-07T12:04:15.012Z,1.75
2022-10-07T12:06:16.976Z,1.48
2022-10-07T12:08:33.374Z,1.50
2022-10-07T12:10:35.426Z,1.33
2022-10-07T12:12:43.549Z,1.25
2022-10-07T12:14:59.846Z,1.42
2022-10-07T12:17:19.201Z,1.60
2022-10-07T12:19:23.641Z,1.20
2022-10-07T12:21:25.868Z,1.63
2022-10-07T12:23:27.506Z,1.10
2022-10-07T12:25:31.204Z,2.28
2022-10-07T12:27:34.833Z,1.42
2022-10-07T12:31:53.310Z,1.65
2022-10-07T12:33:58.941Z,1.80
2022-10-07T12:36:19.148Z,1.40
2022-10-07T12:38:23.790Z,1.30
2022-10-07T12:40:30.387Z,1.52
2022-10-07T12:42:32.309Z,1.75
2022-10-07T12:44:40.765Z,1.60
2022-10-07T12:46:58.507Z,1.77
2022-10-07T12:49:12.909Z,1.60
2022-10-07T12:51:30.495Z,2.15
2022-10-07T12:53:44.125Z,2.08
2022-10-07T12:55:53.322Z,1.80
2022-10-07T12:57:56.301Z,2.08
2022-10-07T13:00:19.435Z,1.77
2022-10-07T13:02:36.270Z,1.90
2022-10-07T13:04:47.243Z,1.90
2022-10-07T13:07:07.392Z,2.58
2022-10-07T13:09:43.432Z,2.00
2022-10-07T13:12:03.119Z,1.50
2022-10-07T13:14:19.891Z,1.75
2022-10-07T13:16:44.137Z,1.80
2022-10-07T13:21:02.432Z,2.22
2022-10-07T13:23:12.194Z,1.80
2022-10-07T13:25:17.184Z,1.65
2022-10-07T13:27:32.736Z,1.55
2022-10-07T13:29:34.720Z,1.75
2022-10-07T13:31:36.486Z,2.22
2022-10-07T13:33:38.320Z,2.00
2022-10-07T13:35:40.124Z,1.63
2022-10-07T13:37:46.154Z,2.13
2022-10-07T13:39:48.082Z,2.10
2022-10-07T13:41:53.832Z,1.92
2022-10-07T13:44:03.508Z,1.77
2022-10-07T13:46:09.231Z,2.20
2022-10-07T13:48:21.201Z,1.85
2022-10-07T13:50:26.859Z,2.00
2022-10-07T13:52:38.036Z,2.33
2022-10-07T13:54:39.828Z,2.13
2022-10-07T13:56:42.990Z,2.35
2022-10-07T13:58:45.449Z,2.10
2022-10-07T14:00:48.359Z,2.17
2022-10-07T14:02:51.012Z,2.10
2022-10-07T14:05:02.424Z,2.40
2022-10-07T14:07:13.598Z,1.88
2022-10-07T14:09:33.750Z,2.50
2022-10-07T14:11:35.599Z,2.25
2022-10-07T14:13:37.559Z,2.22
2022-10-07T14:15:46.632Z,2.10
2022-10-07T14:17:48.404Z,2.67
2022-10-07T14:19:57.029Z,2.20
2022-10-07T14:22:04.248Z,2.15
2022-10-07T14:24:09.834Z,2.33
2022-10-07T14:26:11.761Z,2.30
2022-10-07T14:28:28.651Z,2.45
2022-10-07T14:30:41.000Z,1.92
2022-10-07T14:32:43.416Z,1.67
2022-10-07T14:34:45.809Z,1.70
2022-10-07T14:37:03.432Z,1.90
2022-10-07T14:39:31.317Z,1.88
2022-10-07T14:41:33.050Z,3.10
2022-10-07T14:43:38.635Z,1.60
2022-10-07T14:45:40.445Z,2.30
2022-10-07T14:47:42.206Z,1.80
2022-10-07T14:49:43.986Z,2.10
2022-10-07T14:51:45.764Z,1.88
2022-10-07T14:53:52.240Z,2.17
2022-10-07T14:55:54.037Z,2.05
2022-10-07T14:57:55.795Z,3.90
2022-10-07T14:59:57.526Z,2.75
2022-10-07T15:01:59.407Z,2.13
2022-10-07T15:04:01.410Z,4.22
2022-10-07T15:06:03.373Z,9.32
2022-10-07T15:08:05.276Z,2.10
2022-10-07T15:10:13.997Z,3.55
2022-10-07T15:12:16.569Z,4.57
2022-10-07T15:14:18.398Z,21.35
2022-10-07T15:16:23.174Z,6.55
2022-10-07T15:18:24.944Z,6.82
2022-10-07T15:20:26.651Z,4.43
2022-10-07T15:22:28.420Z,2.97
2022-10-07T15:24:30.255Z,3.15
2022-10-07T15:26:31.980Z,3.00
2022-10-07T15:28:34.215Z,2.25
2022-10-07T15:30:39.405Z,2.60
2022-10-07T15:32:41.381Z,2.58
2022-10-07T15:34:43.165Z,3.00
2022-10-07T15:36:44.977Z,2.45
2022-10-07T15:38:46.657Z,2.55
2022-10-07T15:40:55.235Z,2.63
2022-10-07T15:42:57.344Z,2.88
2022-10-07T15:44:59.065Z,2.72
2022-10-07T15:47:01.021Z,5.68
2022-10-07T15:49:03.198Z,5.63
2022-10-07T15:51:04.965Z,5.70
2022-10-07T15:53:06.879Z,5.80
2022-10-07T15:55:08.940Z,6.40
2022-10-07T15:57:10.681Z,7.03
2022-10-07T15:59:12.664Z,6.30
2022-10-07T16:01:14.627Z,7.25
2022-10-07T16:03:16.380Z,7.32
2022-10-07T16:05:18.135Z,8.57
2022-10-07T16:07:19.961Z,10.90
2022-10-07T16:09:22.977Z,10.05
2022-10-07T16:11:26.124Z,12.23
2022-10-07T16:13:27.987Z,10.05
2022-10-07T16:15:29.723Z,10.52
2022-10-07T16:17:31.522Z,19.55
2022-10-07T16:19:33.419Z,12.82
2022-10-07T16:21:40.944Z,13.52
2022-10-07T16:23:46.249Z,11.98
2022-10-07T16:25:48.324Z,10.85
2022-10-07T16:27:50.025Z,11.45
2022-10-07T16:29:51.812Z,11.98
2022-10-07T16:31:58.164Z,12.18
2022-10-07T16:34:00.815Z,24.85
2022-10-07T16:36:13.404Z,33.38
2022-10-07T16:38:15.215Z,27.20
2022-10-07T16:40:16.913Z,18.65
2022-10-07T16:42:18.713Z,13.82
2022-10-07T16:44:21.220Z,16.17
2022-10-07T16:46:23.353Z,20.15
2022-10-07T16:48:25.185Z,34.60
2022-10-07T16:50:26.935Z,24.85
2022-10-07T16:52:28.657Z,18.58
2022-10-07T16:54:30.456Z,16.13
2022-10-07T16:56:34.481Z,17.10
2022-10-07T16:58:36.643Z,13.68
2022-10-07T17:00:38.615Z,17.38
2022-10-07T17:02:40.443Z,20.40
2022-10-07T17:04:42.148Z,23.77
2022-10-07T17:06:44.211Z,19.95
2022-10-07T17:08:48.474Z,20.58
2022-10-07T17:10:50.497Z,21.75
2022-10-07T17:12:52.330Z,29.92
2022-10-07T17:14:54.080Z,35.70
2022-10-07T17:16:57.831Z,31.13
2022-10-07T17:21:01.465Z,27.77
2022-10-07T17:23:03.235Z,21.27
2022-10-07T17:25:05.629Z,26.25
2022-10-07T17:27:07.866Z,22.80
2022-10-07T17:29:12.673Z,21.55
2022-10-07T17:31:14.621Z,24.67
2022-10-07T17:33:16.414Z,24.63
2022-10-07T17:35:18.142Z,27.67
2022-10-07T17:37:20.016Z,30.90
2022-10-07T17:39:21.868Z,21.38
2022-10-07T17:41:28.723Z,18.70
2022-10-07T17:43:30.520Z,17.67
2022-10-07T17:45:37.583Z,16.50
2022-10-07T17:47:39.279Z,20.80
2022-10-07T17:49:41.018Z,17.50
2022-10-07T17:51:43.421Z,30.58
2022-10-07T17:53:46.191Z,21.58
2022-10-07T17:55:51.786Z,19.27
2022-10-07T17:57:53.633Z,17.88
2022-10-07T17:59:55.336Z,19.80
2022-10-07T18:01:57.174Z,18.40
2022-10-07T18:04:01.545Z,16.90
2022-10-07T18:06:04.102Z,17.77
2022-10-07T18:08:05.976Z,17.02
2022-10-07T18:10:08.179Z,16.77
2022-10-07T18:12:09.894Z,17.80
2022-10-07T18:14:12.267Z,20.88
2022-10-07T18:16:14.097Z,23.92
2022-10-07T18:18:15.848Z,35.10
2022-10-07T18:20:24.524Z,30.42
2022-10-07T18:22:26.458Z,25.55
2022-10-07T18:24:29.094Z,21.80
2022-10-07T18:26:30.886Z,22.48
2022-10-07T18:28:36.576Z,21.52
2022-10-07T18:30:38.351Z,30.83
2022-10-07T18:32:40.223Z,30.38
2022-10-07T18:34:42.074Z,31.70
2022-10-07T18:36:43.819Z,32.15
2022-10-07T18:38:45.931Z,36.65
2022-10-07T18:40:47.813Z,49.85
2022-10-07T18:42:50.088Z,39.80
2022-10-07T18:44:51.851Z,40.88
2022-10-07T18:46:53.713Z,39.13
2022-10-07T18:48:55.512Z,40.85
2022-10-07T18:50:57.285Z,54.72
2022-10-07T18:52:59.139Z,47.33
2022-10-07T18:55:01.389Z,42.17
2022-10-07T18:57:03.189Z,34.97
2022-10-07T18:59:05.115Z,47.25
2022-10-07T19:01:11.077Z,40.45
2022-10-07T19:03:12.976Z,31.17
2022-10-07T19:05:14.891Z,31.45
2022-10-07T19:07:16.618Z,31.75
2022-10-07T19:09:20.788Z,35.70
2022-10-07T19:11:23.257Z,38.22
2022-10-07T19:13:25.013Z,44.15
2022-10-07T19:15:26.921Z,47.33
2022-10-07T19:17:28.663Z,48.45
2022-10-07T19:19:30.384Z,44.83
2022-10-07T19:21:33.122Z,44.03
2022-10-07T19:23:34.880Z,39.90
2022-10-07T19:25:41.873Z,34.25
2022-10-07T19:27:43.901Z,32.13
2022-10-07T19:29:45.922Z,29.45
2022-10-07T19:31:49.236Z,30.40
2022-10-07T19:33:55.606Z,28.17
2022-10-07T19:35:57.425Z,29.38
2022-10-07T19:37:59.890Z,36.20
2022-10-07T19:40:01.729Z,42.50
2022-10-07T19:42:03.596Z,38.53
2022-10-07T19:44:05.869Z,34.33
2022-10-07T19:46:08.555Z,31.63
2022-10-07T19:48:14.171Z,33.50
2022-10-07T19:50:16.402Z,33.78
2022-10-07T19:52:18.267Z,43.35
2022-10-07T19:54:20.052Z,43.05
2022-10-07T19:56:37.087Z,34.28
2022-10-07T19:58:38.912Z,40.13
2022-10-07T20:00:40.655Z,36.50
2022-10-07T20:02:42.424Z,28.75
2022-10-07T20:04:44.452Z,80.38
2022-10-07T20:06:46.565Z,46.70
2022-10-07T20:08:48.392Z,64.30
2022-10-07T20:10:50.365Z,35.13
2022-10-07T20:12:52.672Z,29.50
2022-10-07T20:14:54.360Z,53.72
2022-10-07T20:16:56.403Z,28.55
2022-10-07T20:19:01.871Z,26.15
2022-10-07T20:21:06.939Z,30.00
2022-10-07T20:23:08.774Z,25.15
2022-10-07T20:25:10.542Z,31.33
2022-10-07T20:27:12.300Z,26.55
2022-10-07T20:29:14.255Z,46.33
2022-10-07T20:31:18.868Z,43.70
2022-10-07T20:33:20.583Z,26.02
2022-10-07T20:35:22.371Z,51.58
2022-10-07T20:37:24.172Z,42.47
2022-10-07T20:39:25.916Z,52.67
2022-10-07T20:41:28.591Z,27.17
2022-10-07T20:43:30.326Z,31.23
2022-10-07T20:45:32.143Z,27.35
2022-10-07T20:47:35.166Z,34.85
2022-10-07T20:49:37.849Z,32.72
2022-10-07T20:51:39.550Z,29.30
2022-10-07T20:53:41.301Z,31.60
2022-10-07T20:55:43.086Z,30.55
2022-10-07T20:57:44.766Z,31.33
2022-10-07T20:59:46.557Z,30.23
2022-10-07T21:01:48.350Z,45.03
2022-10-07T21:03:50.049Z,33.03
2022-10-07T21:05:57.802Z,32.15
2022-10-07T21:07:59.540Z,31.27
2022-10-07T21:10:02.029Z,31.92
2022-10-07T21:12:05.887Z,31.88
2022-10-07T21:14:07.627Z,30.70
2022-10-07T21:16:09.333Z,31.92
2022-10-07T21:18:11.187Z,35.13
2022-10-07T21:20:12.923Z,29.02
2022-10-07T21:22:14.655Z,31.15
2022-10-07T21:24:16.937Z,39.05
2022-10-07T21:26:20.105Z,30.25
2022-10-07T21:28:21.896Z,33.78
2022-10-07T21:30:24.010Z,27.92
2022-10-07T21:32:25.970Z,28.67
2022-10-07T21:34:27.674Z,26.67
2022-10-07T21:36:29.660Z,30.80
2022-10-07T21:38:31.495Z,28.73
2022-10-07T21:40:33.166Z,27.35
2022-10-07T21:42:34.960Z,29.58
2022-10-07T21:44:36.764Z,26.98
2022-10-07T21:46:39.638Z,26.08
2022-10-07T21:48:41.497Z,24.70
2022-10-07T21:50:43.409Z,24.95
2022-10-07T21:52:45.642Z,24.95
2022-10-07T21:54:47.600Z,25.27
2022-10-07T21:56:49.300Z,24.80
2022-10-07T21:58:50.984Z,27.88
2022-10-07T22:00:52.899Z,26.35
2022-10-07T22:02:54.647Z,25.80
2022-10-07T22:04:56.661Z,27.50
2022-10-07T22:06:58.506Z,26.67
2022-10-07T22:09:00.181Z,25.50
2022-10-07T22:11:04.278Z,25.17
2022-10-07T22:13:06.101Z,28.48
2022-10-07T22:15:08.128Z,26.15
2022-10-07T22:17:10.075Z,27.05
2022-10-07T22:19:12.132Z,25.30
2022-10-07T22:21:16.266Z,25.00
2022-10-07T22:23:18.080Z,25.17
2022-10-07T22:25:20.034Z,23.50
2022-10-07T22:27:21.762Z,25.58
2022-10-07T22:29:23.716Z,23.40
2022-10-07T22:31:25.801Z,25.00
2022-10-07T22:33:27.539Z,23.67
2022-10-07T22:35:29.300Z,24.25
2022-10-07T22:37:31.006Z,23.48
2022-10-07T22:39:32.684Z,23.83
2022-10-07T22:41:34.450Z,23.25
2022-10-07T22:43:37.809Z,22.70
2022-10-07T22:45:39.605Z,22.23
2022-10-07T22:47:41.554Z,22.48
2022-10-07T22:49:43.395Z,23.48
2022-10-07T22:51:45.073Z,22.33
2022-10-07T22:53:51.842Z,22.05
2022-10-07T22:55:53.539Z,21.30
2022-10-07T22:57:55.251Z,22.20
2022-10-07T22:59:57.489Z,21.77
2022-10-07T23:01:59.168Z,22.02
2022-10-07T23:04:01.945Z,21.05
2022-10-07T23:06:04.322Z,21.23
2022-10-07T23:08:05.998Z,22.45
2022-10-07T23:10:08.262Z,21.98
2022-10-07T23:12:10.066Z,23.73
2022-10-07T23:14:11.849Z,22.52
2022-10-07T23:16:16.329Z,22.13
2022-10-07T23:18:18.217Z,22.52
2022-10-07T23:20:19.963Z,21.30
2022-10-07T23:22:21.654Z,22.08
2022-10-07T23:24:23.523Z,22.67
2022-10-07T23:26:27.234Z,22.13
2022-10-07T23:30:30.704Z,20.80
2022-10-07T23:32:32.510Z,21.67
2022-10-07T23:34:34.208Z,21.25
2022-10-07T23:36:35.959Z,21.40
2022-10-07T23:38:39.441Z,21.52
2022-10-07T23:40:41.177Z,22.23
2022-10-07T23:42:42.948Z,20.75
2022-10-07T23:44:44.634Z,20.15
2022-10-07T23:46:46.405Z,20.95
2022-10-07T23:48:48.591Z,21.05
2022-10-07T23:50:51.302Z,20.83
2022-10-07T23:52:53.030Z,27.40
2022-10-07T23:54:54.899Z,29.08
2022-10-07T23:56:56.582Z,29.98
2022-10-07T23:58:58.321Z,24.55
